sensor_id;sensor_type;location;lat;lon;timestamp;P1;durP1;ratioP1;P2;durP2;ratioP2
7843;SDS011;3967;48.702;9.326;2023-02-12T00:01:16;30.53;;;20.10;;
7843;SDS011;3967;48.702;9.326;2023-02-12T00:03:44;36.97;;;23.00;;
7843;SDS011;3967;48.702;9.326;2023-02-12T00:06:11;31.07;;;21.83;;
7843;SDS011;3967;48.702;9.326;2023-02-12T00:08:41;34.20;;;22.17;;
7843;SDS011;3967;48.702;9.326;2023-02-12T00:11:15;30.63;;;20.30;;
7843;SDS011;3967;48.702;9.326;2023-02-12T00:13:43;33.50;;;21.43;;
7843;SDS011;3967;48.702;9.326;2023-02-12T00:16:11;31.13;;;20.77;;
7843;SDS011;3967;48.702;9.326;2023-02-12T00:18:40;31.60;;;21.47;;
7843;SDS011;3967;48.702;9.326;2023-02-12T00:21:06;32.87;;;21.53;;
7843;SDS011;3967;48.702;9.326;2023-02-12T00:23:34;31.23;;;22.13;;
7843;SDS011;3967;48.702;9.326;2023-02-12T00:26:05;35.30;;;23.87;;
7843;SDS011;3967;48.702;9.326;2023-02-12T00:28:33;34.73;;;22.33;;
7843;SDS011;3967;48.702;9.326;2023-02-12T00:31:08;36.73;;;22.17;;
7843;SDS011;3967;48.702;9.326;2023-02-12T00:33:37;32.90;;;22.73;;
7843;SDS011;3967;48.702;9.326;2023-02-12T00:36:04;36.60;;;23.80;;
7843;SDS011;3967;48.702;9.326;2023-02-12T00:38:32;33.73;;;21.23;;
7843;SDS011;3967;48.702;9.326;2023-02-12T00:40:59;31.70;;;21.43;;
7843;SDS011;3967;48.702;9.326;2023-02-12T00:43:26;30.13;;;20.40;;
7843;SDS011;3967;48.702;9.326;2023-02-12T00:45:53;28.57;;;20.63;;
7843;SDS011;3967;48.702;9.326;2023-02-12T00:48:20;30.07;;;20.70;;
7843;SDS011;3967;48.702;9.326;2023-02-12T00:50:47;33.97;;;23.27;;
7843;SDS011;3967;48.702;9.326;2023-02-12T00:53:15;28.57;;;21.67;;
7843;SDS011;3967;48.702;9.326;2023-02-12T00:55:42;29.43;;;20.27;;
7843;SDS011;3967;48.702;9.326;2023-02-12T00:58:09;32.67;;;21.37;;
7843;SDS011;3967;48.702;9.326;2023-02-12T01:00:36;34.50;;;22.53;;
7843;SDS011;3967;48.702;9.326;2023-02-12T01:03:03;32.13;;;22.17;;
7843;SDS011;3967;48.702;9.326;2023-02-12T01:05:30;34.10;;;21.77;;
7843;SDS011;3967;48.702;9.326;2023-02-12T01:07:58;32.07;;;22.10;;
7843;SDS011;3967;48.702;9.326;2023-02-12T01:10:24;36.70;;;22.13;;
7843;SDS011;3967;48.702;9.326;2023-02-12T01:12:51;30.57;;;20.83;;
7843;SDS011;3967;48.702;9.326;2023-02-12T01:15:18;27.90;;;20.13;;
7843;SDS011;3967;48.702;9.326;2023-02-12T01:17:45;28.90;;;20.43;;
7843;SDS011;3967;48.702;9.326;2023-02-12T01:20:15;29.20;;;21.07;;
7843;SDS011;3967;48.702;9.326;2023-02-12T01:22:42;30.47;;;21.57;;
7843;SDS011;3967;48.702;9.326;2023-02-12T01:25:10;30.67;;;21.17;;
7843;SDS011;3967;48.702;9.326;2023-02-12T01:27:37;32.30;;;23.00;;
7843;SDS011;3967;48.702;9.326;2023-02-12T01:30:05;35.03;;;23.33;;
7843;SDS011;3967;48.702;9.326;2023-02-12T01:32:34;38.17;;;23.87;;
7843;SDS011;3967;48.702;9.326;2023-02-12T01:35:00;33.00;;;23.50;;
7843;SDS011;3967;48.702;9.326;2023-02-12T01:37:27;33.80;;;23.87;;
7843;SDS011;3967;48.702;9.326;2023-02-12T01:39:54;35.20;;;22.77;;
7843;SDS011;3967;48.702;9.326;2023-02-12T01:42:20;33.87;;;21.50;;
7843;SDS011;3967;48.702;9.326;2023-02-12T01:47:42;33.53;;;22.50;;
7843;SDS011;3967;48.702;9.326;2023-02-12T01:50:11;34.77;;;23.47;;
7843;SDS011;3967;48.702;9.326;2023-02-12T01:52:42;30.27;;;20.40;;
7843;SDS011;3967;48.702;9.326;2023-02-12T01:55:13;32.23;;;22.37;;
7843;SDS011;3967;48.702;9.326;2023-02-12T01:57:41;33.40;;;22.10;;
7843;SDS011;3967;48.702;9.326;2023-02-12T02:00:12;28.57;;;21.07;;
7843;SDS011;3967;48.702;9.326;2023-02-12T02:02:44;31.93;;;22.07;;
7843;SDS011;3967;48.702;9.326;2023-02-12T02:05:15;33.57;;;22.30;;
7843;SDS011;3967;48.702;9.326;2023-02-12T02:07:48;35.23;;;23.03;;
7843;SDS011;3967;48.702;9.326;2023-02-12T02:10:14;33.63;;;23.03;;
7843;SDS011;3967;48.702;9.326;2023-02-12T02:12:41;31.70;;;20.87;;
7843;SDS011;3967;48.702;9.326;2023-02-12T02:15:26;36.73;;;23.70;;
7843;SDS011;3967;48.702;9.326;2023-02-12T02:18:01;30.33;;;21.70;;
7843;SDS011;3967;48.702;9.326;2023-02-12T02:37:19;33.43;;;22.07;;
7843;SDS011;3967;48.702;9.326;2023-02-12T02:39:56;32.57;;;20.73;;
7843;SDS011;3967;48.702;9.326;2023-02-12T02:42:31;33.00;;;21.60;;
7843;SDS011;3967;48.702;9.326;2023-02-12T02:48:01;31.43;;;21.57;;
7843;SDS011;3967;48.702;9.326;2023-02-12T02:50:32;29.03;;;20.00;;
7843;SDS011;3967;48.702;9.326;2023-02-12T02:53:04;31.90;;;22.13;;
7843;SDS011;3967;48.702;9.326;2023-02-12T02:58:44;33.63;;;19.83;;
7843;SDS011;3967;48.702;9.326;2023-02-12T03:01:21;30.90;;;21.17;;
7843;SDS011;3967;48.702;9.326;2023-02-12T03:04:03;37.37;;;22.60;;
7843;SDS011;3967;48.702;9.326;2023-02-12T03:09:18;30.17;;;20.07;;
7843;SDS011;3967;48.702;9.326;2023-02-12T03:11:55;28.70;;;19.13;;
7843;SDS011;3967;48.702;9.326;2023-02-12T03:14:26;33.90;;;22.27;;
7843;SDS011;3967;48.702;9.326;2023-02-12T03:16:59;32.53;;;21.60;;
7843;SDS011;3967;48.702;9.326;2023-02-12T03:19:51;34.03;;;23.00;;
7843;SDS011;3967;48.702;9.326;2023-02-12T03:22:22;34.53;;;22.60;;
7843;SDS011;3967;48.702;9.326;2023-02-12T03:25:00;34.93;;;22.10;;
7843;SDS011;3967;48.702;9.326;2023-02-12T03:28:12;32.67;;;22.10;;
7843;SDS011;3967;48.702;9.326;2023-02-12T03:30:44;29.93;;;21.97;;
7843;SDS011;3967;48.702;9.326;2023-02-12T03:36:18;36.07;;;22.37;;
7843;SDS011;3967;48.702;9.326;2023-02-12T03:39:19;35.00;;;22.53;;
7843;SDS011;3967;48.702;9.326;2023-02-12T03:47:53;30.83;;;20.93;;
7843;SDS011;3967;48.702;9.326;2023-02-12T03:50:36;30.37;;;20.33;;
7843;SDS011;3967;48.702;9.326;2023-02-12T03:53:09;31.83;;;22.40;;
7843;SDS011;3967;48.702;9.326;2023-02-12T03:55:37;27.77;;;20.63;;
7843;SDS011;3967;48.702;9.326;2023-02-12T03:58:06;35.53;;;22.27;;
7843;SDS011;3967;48.702;9.326;2023-02-12T04:00:36;29.73;;;21.03;;
7843;SDS011;3967;48.702;9.326;2023-02-12T04:03:04;31.27;;;20.70;;
7843;SDS011;3967;48.702;9.326;2023-02-12T04:05:32;32.93;;;22.47;;
7843;SDS011;3967;48.702;9.326;2023-02-12T04:07:58;33.00;;;21.57;;
7843;SDS011;3967;48.702;9.326;2023-02-12T04:10:29;33.43;;;21.33;;
7843;SDS011;3967;48.702;9.326;2023-02-12T04:13:11;32.80;;;22.97;;
7843;SDS011;3967;48.702;9.326;2023-02-12T04:15:56;31.80;;;21.03;;
7843;SDS011;3967;48.702;9.326;2023-02-12T04:18:42;29.23;;;19.20;;
7843;SDS011;3967;48.702;9.326;2023-02-12T04:21:13;32.97;;;22.53;;
7843;SDS011;3967;48.702;9.326;2023-02-12T04:26:41;30.20;;;19.10;;
7843;SDS011;3967;48.702;9.326;2023-02-12T04:32:00;33.10;;;22.63;;
7843;SDS011;3967;48.702;9.326;2023-02-12T04:34:56;32.27;;;21.40;;
7843;SDS011;3967;48.702;9.326;2023-02-12T04:40:26;33.43;;;22.33;;
7843;SDS011;3967;48.702;9.326;2023-02-12T04:42:52;33.40;;;22.90;;
7843;SDS011;3967;48.702;9.326;2023-02-12T04:45:24;33.27;;;21.60;;
7843;SDS011;3967;48.702;9.326;2023-02-12T04:47:53;32.50;;;21.93;;
7843;SDS011;3967;48.702;9.326;2023-02-12T04:50:19;36.23;;;23.07;;
7843;SDS011;3967;48.702;9.326;2023-02-12T04:52:46;30.20;;;21.53;;
7843;SDS011;3967;48.702;9.326;2023-02-12T04:55:14;31.73;;;22.20;;
7843;SDS011;3967;48.702;9.326;2023-02-12T04:57:40;32.93;;;22.60;;
7843;SDS011;3967;48.702;9.326;2023-02-12T05:00:08;29.60;;;21.40;;
7843;SDS011;3967;48.702;9.326;2023-02-12T05:02:38;30.53;;;21.67;;
7843;SDS011;3967;48.702;9.326;2023-02-12T05:05:04;28.33;;;21.20;;
7843;SDS011;3967;48.702;9.326;2023-02-12T05:07:31;29.83;;;20.80;;
7843;SDS011;3967;48.702;9.326;2023-02-12T05:09:58;28.23;;;19.63;;
7843;SDS011;3967;48.702;9.326;2023-02-12T05:12:25;31.67;;;22.30;;
7843;SDS011;3967;48.702;9.326;2023-02-12T05:14:52;30.77;;;22.63;;
7843;SDS011;3967;48.702;9.326;2023-02-12T05:17:20;32.43;;;20.90;;
7843;SDS011;3967;48.702;9.326;2023-02-12T05:19:47;27.77;;;21.37;;
7843;SDS011;3967;48.702;9.326;2023-02-12T05:22:14;31.83;;;21.93;;
7843;SDS011;3967;48.702;9.326;2023-02-12T05:24:41;29.50;;;21.07;;
7843;SDS011;3967;48.702;9.326;2023-02-12T05:27:08;33.53;;;21.70;;
7843;SDS011;3967;48.702;9.326;2023-02-12T05:29:35;33.93;;;22.50;;
7843;SDS011;3967;48.702;9.326;2023-02-12T05:32:02;29.60;;;20.33;;
7843;SDS011;3967;48.702;9.326;2023-02-12T05:34:29;33.87;;;22.67;;
7843;SDS011;3967;48.702;9.326;2023-02-12T05:36:56;33.67;;;22.23;;
7843;SDS011;3967;48.702;9.326;2023-02-12T05:39:23;34.13;;;22.30;;
7843;SDS011;3967;48.702;9.326;2023-02-12T05:41:50;31.27;;;21.73;;
7843;SDS011;3967;48.702;9.326;2023-02-12T05:44:17;34.40;;;22.57;;
7843;SDS011;3967;48.702;9.326;2023-02-12T05:46:43;32.87;;;21.70;;
7843;SDS011;3967;48.702;9.326;2023-02-12T05:49:10;31.73;;;22.27;;
7843;SDS011;3967;48.702;9.326;2023-02-12T05:51:37;31.53;;;21.53;;
7843;SDS011;3967;48.702;9.326;2023-02-12T05:54:05;35.83;;;22.77;;
7843;SDS011;3967;48.702;9.326;2023-02-12T05:56:33;34.20;;;23.90;;
7843;SDS011;3967;48.702;9.326;2023-02-12T05:59:03;33.23;;;23.33;;
7843;SDS011;3967;48.702;9.326;2023-02-12T06:01:36;35.90;;;22.43;;
7843;SDS011;3967;48.702;9.326;2023-02-12T06:04:04;39.53;;;23.73;;
7843;SDS011;3967;48.702;9.326;2023-02-12T06:06:33;33.80;;;23.43;;
7843;SDS011;3967;48.702;9.326;2023-02-12T06:09:00;33.97;;;23.03;;
7843;SDS011;3967;48.702;9.326;2023-02-12T06:11:27;37.40;;;22.80;;
7843;SDS011;3967;48.702;9.326;2023-02-12T06:13:54;35.67;;;23.90;;
7843;SDS011;3967;48.702;9.326;2023-02-12T06:16:25;31.97;;;23.70;;
7843;SDS011;3967;48.702;9.326;2023-02-12T06:18:53;37.83;;;24.03;;
7843;SDS011;3967;48.702;9.326;2023-02-12T06:21:22;33.57;;;23.03;;
7843;SDS011;3967;48.702;9.326;2023-02-12T06:23:52;33.50;;;22.77;;
7843;SDS011;3967;48.702;9.326;2023-02-12T06:26:19;34.57;;;23.90;;
7843;SDS011;3967;48.702;9.326;2023-02-12T06:28:47;39.47;;;25.33;;
7843;SDS011;3967;48.702;9.326;2023-02-12T06:31:35;32.17;;;22.07;;
7843;SDS011;3967;48.702;9.326;2023-02-12T06:34:03;34.47;;;25.17;;
7843;SDS011;3967;48.702;9.326;2023-02-12T06:36:32;33.97;;;23.00;;
7843;SDS011;3967;48.702;9.326;2023-02-12T06:39:01;31.50;;;22.27;;
7843;SDS011;3967;48.702;9.326;2023-02-12T06:41:28;34.17;;;24.07;;
7843;SDS011;3967;48.702;9.326;2023-02-12T06:43:55;39.50;;;26.27;;
7843;SDS011;3967;48.702;9.326;2023-02-12T06:46:23;39.70;;;27.07;;
7843;SDS011;3967;48.702;9.326;2023-02-12T06:48:53;39.50;;;27.20;;
7843;SDS011;3967;48.702;9.326;2023-02-12T06:51:20;40.60;;;27.57;;
7843;SDS011;3967;48.702;9.326;2023-02-12T06:53:49;34.40;;;23.90;;
7843;SDS011;3967;48.702;9.326;2023-02-12T06:56:17;39.80;;;28.17;;
7843;SDS011;3967;48.702;9.326;2023-02-12T06:58:45;36.53;;;25.10;;
7843;SDS011;3967;48.702;9.326;2023-02-12T07:01:16;44.00;;;26.53;;
7843;SDS011;3967;48.702;9.326;2023-02-12T07:03:52;42.67;;;29.00;;
7843;SDS011;3967;48.702;9.326;2023-02-12T07:06:20;42.63;;;27.13;;
7843;SDS011;3967;48.702;9.326;2023-02-12T07:08:48;45.03;;;28.53;;
7843;SDS011;3967;48.702;9.326;2023-02-12T07:11:15;42.80;;;27.97;;
7843;SDS011;3967;48.702;9.326;2023-02-12T07:13:43;43.33;;;27.27;;
7843;SDS011;3967;48.702;9.326;2023-02-12T07:16:11;41.10;;;26.60;;
7843;SDS011;3967;48.702;9.326;2023-02-12T07:18:40;40.47;;;27.00;;
7843;SDS011;3967;48.702;9.326;2023-02-12T07:21:07;44.37;;;27.67;;
7843;SDS011;3967;48.702;9.326;2023-02-12T07:23:35;43.90;;;28.03;;
7843;SDS011;3967;48.702;9.326;2023-02-12T07:26:21;36.53;;;26.03;;
7843;SDS011;3967;48.702;9.326;2023-02-12T07:28:49;43.33;;;26.73;;
7843;SDS011;3967;48.702;9.326;2023-02-12T07:31:18;41.63;;;26.50;;
7843;SDS011;3967;48.702;9.326;2023-02-12T07:33:46;39.07;;;25.83;;
7843;SDS011;3967;48.702;9.326;2023-02-12T07:36:15;38.43;;;26.23;;
7843;SDS011;3967;48.702;9.326;2023-02-12T07:38:44;38.93;;;26.17;;
7843;SDS011;3967;48.702;9.326;2023-02-12T07:41:13;39.30;;;26.17;;
7843;SDS011;3967;48.702;9.326;2023-02-12T07:43:42;36.93;;;24.73;;
7843;SDS011;3967;48.702;9.326;2023-02-12T07:46:17;47.60;;;27.70;;
7843;SDS011;3967;48.702;9.326;2023-02-12T07:48:47;39.47;;;27.33;;
7843;SDS011;3967;48.702;9.326;2023-02-12T07:51:14;39.53;;;26.53;;
7843;SDS011;3967;48.702;9.326;2023-02-12T07:53:47;46.13;;;26.90;;
7843;SDS011;3967;48.702;9.326;2023-02-12T07:56:15;39.27;;;25.93;;
7843;SDS011;3967;48.702;9.326;2023-02-12T07:58:44;37.67;;;27.53;;
7843;SDS011;3967;48.702;9.326;2023-02-12T08:03:41;41.53;;;27.20;;
7843;SDS011;3967;48.702;9.326;2023-02-12T08:06:09;42.30;;;26.80;;
7843;SDS011;3967;48.702;9.326;2023-02-12T08:08:38;40.03;;;26.73;;
7843;SDS011;3967;48.702;9.326;2023-02-12T08:11:05;41.37;;;28.63;;
7843;SDS011;3967;48.702;9.326;2023-02-12T08:13:34;46.97;;;29.23;;
7843;SDS011;3967;48.702;9.326;2023-02-12T08:16:02;45.10;;;29.90;;
7843;SDS011;3967;48.702;9.326;2023-02-12T08:18:31;47.40;;;30.37;;
7843;SDS011;3967;48.702;9.326;2023-02-12T08:21:05;43.70;;;28.37;;
7843;SDS011;3967;48.702;9.326;2023-02-12T08:23:34;46.80;;;29.90;;
7843;SDS011;3967;48.702;9.326;2023-02-12T08:26:08;49.80;;;29.87;;
7843;SDS011;3967;48.702;9.326;2023-02-12T08:28:38;46.73;;;31.03;;
7843;SDS011;3967;48.702;9.326;2023-02-12T08:31:09;45.63;;;30.53;;
7843;SDS011;3967;48.702;9.326;2023-02-12T08:33:38;54.23;;;33.10;;
7843;SDS011;3967;48.702;9.326;2023-02-12T08:36:06;46.27;;;30.17;;
7843;SDS011;3967;48.702;9.326;2023-02-12T08:38:40;49.43;;;30.63;;
7843;SDS011;3967;48.702;9.326;2023-02-12T08:41:19;52.33;;;31.07;;
7843;SDS011;3967;48.702;9.326;2023-02-12T08:43:48;49.47;;;30.73;;
7843;SDS011;3967;48.702;9.326;2023-02-12T08:46:18;49.77;;;31.13;;
7843;SDS011;3967;48.702;9.326;2023-02-12T08:48:51;51.70;;;32.33;;
7843;SDS011;3967;48.702;9.326;2023-02-12T08:51:20;51.50;;;34.10;;
7843;SDS011;3967;48.702;9.326;2023-02-12T08:53:53;53.73;;;34.73;;
7843;SDS011;3967;48.702;9.326;2023-02-12T08:56:21;53.10;;;34.97;;
7843;SDS011;3967;48.702;9.326;2023-02-12T08:58:49;56.90;;;36.10;;
7843;SDS011;3967;48.702;9.326;2023-02-12T09:01:17;58.77;;;37.97;;
7843;SDS011;3967;48.702;9.326;2023-02-12T09:03:48;57.80;;;35.97;;
7843;SDS011;3967;48.702;9.326;2023-02-12T09:06:19;61.93;;;37.63;;
7843;SDS011;3967;48.702;9.326;2023-02-12T09:08:47;56.40;;;36.00;;
7843;SDS011;3967;48.702;9.326;2023-02-12T09:11:16;61.87;;;36.00;;
7843;SDS011;3967;48.702;9.326;2023-02-12T09:13:46;57.20;;;36.03;;
7843;SDS011;3967;48.702;9.326;2023-02-12T09:16:14;55.07;;;33.83;;
7843;SDS011;3967;48.702;9.326;2023-02-12T09:18:43;54.00;;;32.70;;
7843;SDS011;3967;48.702;9.326;2023-02-12T09:21:11;51.23;;;31.50;;
7843;SDS011;3967;48.702;9.326;2023-02-12T09:23:42;46.20;;;28.80;;
7843;SDS011;3967;48.702;9.326;2023-02-12T09:26:10;44.17;;;29.00;;
7843;SDS011;3967;48.702;9.326;2023-02-12T09:28:40;42.93;;;27.80;;
7843;SDS011;3967;48.702;9.326;2023-02-12T09:31:08;50.03;;;30.27;;
7843;SDS011;3967;48.702;9.326;2023-02-12T09:33:40;49.60;;;30.57;;
7843;SDS011;3967;48.702;9.326;2023-02-12T09:36:08;37.20;;;25.33;;
7843;SDS011;3967;48.702;9.326;2023-02-12T09:38:37;37.73;;;24.20;;
7843;SDS011;3967;48.702;9.326;2023-02-12T09:47:08;28.07;;;20.03;;
7843;SDS011;3967;48.702;9.326;2023-02-12T09:49:55;30.07;;;18.77;;
7843;SDS011;3967;48.702;9.326;2023-02-12T09:52:38;25.50;;;16.80;;
7843;SDS011;3967;48.702;9.326;2023-02-12T09:55:08;28.73;;;17.60;;
7843;SDS011;3967;48.702;9.326;2023-02-12T09:57:39;28.23;;;16.03;;
7843;SDS011;3967;48.702;9.326;2023-02-12T10:00:14;17.97;;;13.87;;
7843;SDS011;3967;48.702;9.326;2023-02-12T10:02:59;21.83;;;14.27;;
7843;SDS011;3967;48.702;9.326;2023-02-12T10:05:31;18.20;;;11.23;;
7843;SDS011;3967;48.702;9.326;2023-02-12T10:08:12;16.00;;;10.27;;
7843;SDS011;3967;48.702;9.326;2023-02-12T10:26:49;14.23;;;8.97;;
7843;SDS011;3967;48.702;9.326;2023-02-12T10:29:22;15.60;;;9.20;;
7843;SDS011;3967;48.702;9.326;2023-02-12T10:31:54;14.30;;;9.17;;
7843;SDS011;3967;48.702;9.326;2023-02-12T10:34:32;12.67;;;8.97;;
7843;SDS011;3967;48.702;9.326;2023-02-12T10:37:24;15.50;;;10.37;;
7843;SDS011;3967;48.702;9.326;2023-02-12T10:40:12;15.10;;;10.10;;
7843;SDS011;3967;48.702;9.326;2023-02-12T10:42:55;14.30;;;10.33;;
7843;SDS011;3967;48.702;9.326;2023-02-12T10:45:34;14.40;;;9.53;;
7843;SDS011;3967;48.702;9.326;2023-02-12T10:50:44;13.80;;;9.63;;
7843;SDS011;3967;48.702;9.326;2023-02-12T10:53:39;11.50;;;8.60;;
7843;SDS011;3967;48.702;9.326;2023-02-12T10:56:15;12.50;;;8.43;;
7843;SDS011;3967;48.702;9.326;2023-02-12T10:58:55;11.73;;;8.43;;
7843;SDS011;3967;48.702;9.326;2023-02-12T11:01:32;12.63;;;8.27;;
7843;SDS011;3967;48.702;9.326;2023-02-12T11:09:30;10.43;;;7.53;;
7843;SDS011;3967;48.702;9.326;2023-02-12T11:12:43;7.50;;;5.47;;
7843;SDS011;3967;48.702;9.326;2023-02-12T11:17:57;7.80;;;4.80;;
7843;SDS011;3967;48.702;9.326;2023-02-12T11:20:41;8.33;;;5.60;;
7843;SDS011;3967;48.702;9.326;2023-02-12T11:23:24;8.40;;;5.77;;
7843;SDS011;3967;48.702;9.326;2023-02-12T11:25:58;7.20;;;5.13;;
7843;SDS011;3967;48.702;9.326;2023-02-12T11:28:31;6.07;;;4.90;;
7843;SDS011;3967;48.702;9.326;2023-02-12T11:31:02;7.20;;;5.10;;
7843;SDS011;3967;48.702;9.326;2023-02-12T11:33:45;8.47;;;5.63;;
7843;SDS011;3967;48.702;9.326;2023-02-12T11:36:15;7.87;;;5.53;;
7843;SDS011;3967;48.702;9.326;2023-02-12T11:38:53;8.70;;;5.27;;
7843;SDS011;3967;48.702;9.326;2023-02-12T11:41:32;8.70;;;5.87;;
7843;SDS011;3967;48.702;9.326;2023-02-12T11:44:11;8.60;;;6.20;;
7843;SDS011;3967;48.702;9.326;2023-02-12T11:47:17;9.17;;;5.47;;
7843;SDS011;3967;48.702;9.326;2023-02-12T11:49:49;10.53;;;6.90;;
7843;SDS011;3967;48.702;9.326;2023-02-12T11:52:23;7.83;;;5.20;;
7843;SDS011;3967;48.702;9.326;2023-02-12T11:54:58;6.53;;;5.10;;
7843;SDS011;3967;48.702;9.326;2023-02-12T12:00:52;7.90;;;5.40;;
7843;SDS011;3967;48.702;9.326;2023-02-12T12:03:12;6.57;;;5.43;;
7843;SDS011;3967;48.702;9.326;2023-02-12T12:06:00;10.70;;;5.50;;
7843;SDS011;3967;48.702;9.326;2023-02-12T12:14:06;7.63;;;5.20;;
7843;SDS011;3967;48.702;9.326;2023-02-12T12:19:57;6.47;;;4.93;;
7843;SDS011;3967;48.702;9.326;2023-02-12T12:25:28;5.37;;;3.97;;
7843;SDS011;3967;48.702;9.326;2023-02-12T12:34:05;4.93;;;3.43;;
7843;SDS011;3967;48.702;9.326;2023-02-12T12:48:42;3.87;;;3.13;;
7843;SDS011;3967;48.702;9.326;2023-02-12T13:05:26;3.80;;;3.30;;
7843;SDS011;3967;48.702;9.326;2023-02-12T13:14:00;3.63;;;2.80;;
7843;SDS011;3967;48.702;9.326;2023-02-12T13:21:52;3.80;;;3.30;;
7843;SDS011;3967;48.702;9.326;2023-02-12T13:24:48;5.37;;;3.30;;
7843;SDS011;3967;48.702;9.326;2023-02-12T13:27:21;3.47;;;2.90;;
7843;SDS011;3967;48.702;9.326;2023-02-12T13:30:00;3.93;;;2.97;;
7843;SDS011;3967;48.702;9.326;2023-02-12T13:32:47;5.17;;;3.60;;
7843;SDS011;3967;48.702;9.326;2023-02-12T13:35:21;3.57;;;3.10;;
7843;SDS011;3967;48.702;9.326;2023-02-12T13:37:53;3.40;;;3.10;;
7843;SDS011;3967;48.702;9.326;2023-02-12T13:40:24;7.43;;;3.30;;
7843;SDS011;3967;48.702;9.326;2023-02-12T14:01:58;3.90;;;3.07;;
7843;SDS011;3967;48.702;9.326;2023-02-12T14:04:42;2.97;;;2.67;;
7843;SDS011;3967;48.702;9.326;2023-02-12T14:07:20;3.77;;;3.23;;
7843;SDS011;3967;48.702;9.326;2023-02-12T14:14:44;4.03;;;2.83;;
7843;SDS011;3967;48.702;9.326;2023-02-12T14:27:57;2.60;;;2.30;;
7843;SDS011;3967;48.702;9.326;2023-02-12T14:33:45;3.27;;;2.67;;
7843;SDS011;3967;48.702;9.326;2023-02-12T14:36:15;4.47;;;2.93;;
7843;SDS011;3967;48.702;9.326;2023-02-12T14:41:50;2.40;;;2.10;;
7843;SDS011;3967;48.702;9.326;2023-02-12T14:44:45;2.47;;;2.20;;
7843;SDS011;3967;48.702;9.326;2023-02-12T14:49:53;2.90;;;2.60;;
7843;SDS011;3967;48.702;9.326;2023-02-12T14:52:31;2.87;;;2.50;;
7843;SDS011;3967;48.702;9.326;2023-02-12T14:55:12;3.27;;;2.70;;
7843;SDS011;3967;48.702;9.326;2023-02-12T14:57:45;2.67;;;2.37;;
7843;SDS011;3967;48.702;9.326;2023-02-12T15:00:26;3.30;;;2.20;;
7843;SDS011;3967;48.702;9.326;2023-02-12T15:11:11;4.37;;;2.33;;
7843;SDS011;3967;48.702;9.326;2023-02-12T15:13:48;2.93;;;2.53;;
7843;SDS011;3967;48.702;9.326;2023-02-12T15:21:46;2.90;;;2.60;;
7843;SDS011;3967;48.702;9.326;2023-02-12T15:24:19;3.53;;;2.47;;
7843;SDS011;3967;48.702;9.326;2023-02-12T15:26:49;3.07;;;2.40;;
7843;SDS011;3967;48.702;9.326;2023-02-12T15:31:57;3.07;;;2.43;;
7843;SDS011;3967;48.702;9.326;2023-02-12T15:34:27;7.53;;;2.67;;
7843;SDS011;3967;48.702;9.326;2023-02-12T15:36:57;2.70;;;2.50;;
7843;SDS011;3967;48.702;9.326;2023-02-12T15:39:26;2.70;;;2.30;;
7843;SDS011;3967;48.702;9.326;2023-02-12T15:47:40;5.07;;;2.83;;
7843;SDS011;3967;48.702;9.326;2023-02-12T15:50:12;3.67;;;3.20;;
7843;SDS011;3967;48.702;9.326;2023-02-12T15:52:40;3.37;;;2.93;;
7843;SDS011;3967;48.702;9.326;2023-02-12T15:55:13;4.73;;;2.87;;
7843;SDS011;3967;48.702;9.326;2023-02-12T15:57:43;3.73;;;3.13;;
7843;SDS011;3967;48.702;9.326;2023-02-12T16:00:34;3.43;;;3.03;;
7843;SDS011;3967;48.702;9.326;2023-02-12T16:03:27;4.40;;;2.90;;
7843;SDS011;3967;48.702;9.326;2023-02-12T16:06:06;3.60;;;3.10;;
7843;SDS011;3967;48.702;9.326;2023-02-12T16:08:36;3.90;;;2.70;;
7843;SDS011;3967;48.702;9.326;2023-02-12T16:11:04;4.87;;;3.07;;
7843;SDS011;3967;48.702;9.326;2023-02-12T16:14:00;5.10;;;3.40;;
7843;SDS011;3967;48.702;9.326;2023-02-12T16:16:43;3.60;;;2.80;;
7843;SDS011;3967;48.702;9.326;2023-02-12T16:19:18;4.40;;;2.97;;
7843;SDS011;3967;48.702;9.326;2023-02-12T16:24:31;4.87;;;3.67;;
7843;SDS011;3967;48.702;9.326;2023-02-12T16:27:07;4.90;;;3.87;;
7843;SDS011;3967;48.702;9.326;2023-02-12T16:29:48;5.40;;;3.57;;
7843;SDS011;3967;48.702;9.326;2023-02-12T16:32:39;5.30;;;3.93;;
7843;SDS011;3967;48.702;9.326;2023-02-12T16:40:11;5.53;;;4.63;;
7843;SDS011;3967;48.702;9.326;2023-02-12T16:45:47;5.93;;;4.30;;
7843;SDS011;3967;48.702;9.326;2023-02-12T16:48:08;6.43;;;4.77;;
7843;SDS011;3967;48.702;9.326;2023-02-12T16:50:45;5.80;;;4.27;;
7843;SDS011;3967;48.702;9.326;2023-02-12T16:55:57;4.87;;;3.83;;
7843;SDS011;3967;48.702;9.326;2023-02-12T16:58:25;5.83;;;4.70;;
7843;SDS011;3967;48.702;9.326;2023-02-12T17:00:52;6.20;;;4.90;;
7843;SDS011;3967;48.702;9.326;2023-02-12T17:03:21;5.17;;;3.80;;
7843;SDS011;3967;48.702;9.326;2023-02-12T17:05:49;4.67;;;3.97;;
7843;SDS011;3967;48.702;9.326;2023-02-12T17:08:19;6.97;;;4.80;;
7843;SDS011;3967;48.702;9.326;2023-02-12T17:10:47;5.70;;;4.53;;
7843;SDS011;3967;48.702;9.326;2023-02-12T17:13:15;5.20;;;3.87;;
7843;SDS011;3967;48.702;9.326;2023-02-12T17:15:45;6.07;;;4.20;;
7843;SDS011;3967;48.702;9.326;2023-02-12T17:18:13;6.73;;;5.03;;
7843;SDS011;3967;48.702;9.326;2023-02-12T17:20:40;5.90;;;4.57;;
7843;SDS011;3967;48.702;9.326;2023-02-12T17:23:08;4.73;;;4.13;;
7843;SDS011;3967;48.702;9.326;2023-02-12T17:25:36;5.07;;;3.80;;
7843;SDS011;3967;48.702;9.326;2023-02-12T17:28:05;5.67;;;4.10;;
7843;SDS011;3967;48.702;9.326;2023-02-12T17:30:33;5.13;;;3.93;;
7843;SDS011;3967;48.702;9.326;2023-02-12T17:33:02;5.70;;;4.13;;
7843;SDS011;3967;48.702;9.326;2023-02-12T17:35:29;5.67;;;4.23;;
7843;SDS011;3967;48.702;9.326;2023-02-12T17:37:56;5.40;;;4.20;;
7843;SDS011;3967;48.702;9.326;2023-02-12T17:40:23;7.87;;;5.23;;
7843;SDS011;3967;48.702;9.326;2023-02-12T17:42:49;6.27;;;4.60;;
7843;SDS011;3967;48.702;9.326;2023-02-12T17:45:16;6.83;;;5.13;;
7843;SDS011;3967;48.702;9.326;2023-02-12T17:47:44;5.37;;;4.10;;
7843;SDS011;3967;48.702;9.326;2023-02-12T17:50:12;7.53;;;4.40;;
7843;SDS011;3967;48.702;9.326;2023-02-12T17:52:40;6.43;;;4.70;;
7843;SDS011;3967;48.702;9.326;2023-02-12T17:55:07;6.10;;;5.03;;
7843;SDS011;3967;48.702;9.326;2023-02-12T17:57:36;6.90;;;5.33;;
7843;SDS011;3967;48.702;9.326;2023-02-12T18:00:07;7.03;;;5.23;;
7843;SDS011;3967;48.702;9.326;2023-02-12T18:02:46;8.97;;;6.80;;
7843;SDS011;3967;48.702;9.326;2023-02-12T18:05:15;9.23;;;6.90;;
7843;SDS011;3967;48.702;9.326;2023-02-12T18:07:42;8.57;;;5.57;;
7843;SDS011;3967;48.702;9.326;2023-02-12T18:10:12;9.83;;;6.53;;
7843;SDS011;3967;48.702;9.326;2023-02-12T18:12:39;8.57;;;6.50;;
7843;SDS011;3967;48.702;9.326;2023-02-12T18:15:07;8.60;;;5.43;;
7843;SDS011;3967;48.702;9.326;2023-02-12T18:17:35;8.67;;;6.40;;
7843;SDS011;3967;48.702;9.326;2023-02-12T18:20:02;8.27;;;6.07;;
7843;SDS011;3967;48.702;9.326;2023-02-12T18:22:31;9.93;;;6.37;;
7843;SDS011;3967;48.702;9.326;2023-02-12T18:25:00;9.50;;;6.50;;
7843;SDS011;3967;48.702;9.326;2023-02-12T18:27:27;9.37;;;6.87;;
7843;SDS011;3967;48.702;9.326;2023-02-12T18:29:54;10.53;;;6.30;;
7843;SDS011;3967;48.702;9.326;2023-02-12T18:32:22;8.27;;;6.30;;
7843;SDS011;3967;48.702;9.326;2023-02-12T18:34:49;10.30;;;7.23;;
7843;SDS011;3967;48.702;9.326;2023-02-12T18:37:19;10.43;;;6.83;;
7843;SDS011;3967;48.702;9.326;2023-02-12T18:39:46;9.83;;;7.07;;
7843;SDS011;3967;48.702;9.326;2023-02-12T18:42:12;10.43;;;7.83;;
7843;SDS011;3967;48.702;9.326;2023-02-12T18:44:42;12.40;;;8.93;;
7843;SDS011;3967;48.702;9.326;2023-02-12T18:47:10;11.10;;;8.23;;
7843;SDS011;3967;48.702;9.326;2023-02-12T18:49:37;10.10;;;7.37;;
7843;SDS011;3967;48.702;9.326;2023-02-12T18:52:05;12.57;;;8.67;;
7843;SDS011;3967;48.702;9.326;2023-02-12T18:54:32;13.53;;;9.63;;
7843;SDS011;3967;48.702;9.326;2023-02-12T18:57:00;14.20;;;8.50;;
7843;SDS011;3967;48.702;9.326;2023-02-12T18:59:27;14.50;;;9.50;;
7843;SDS011;3967;48.702;9.326;2023-02-12T19:01:54;10.47;;;7.07;;
7843;SDS011;3967;48.702;9.326;2023-02-12T19:04:21;10.87;;;7.30;;